sensor_id;sensor_type;location;lat;lon;timestamp;P1;durP1;ratioP1;P2;durP2;ratioP2
75890;SDS011;64571;47.512;19.054;2023-02-15T00:00:01;35.92;;;16.77;;
75890;SDS011;64571;47.512;19.054;2023-02-15T00:03:06;38.83;;;17.17;;
75890;SDS011;64571;47.512;19.054;2023-02-15T00:06:08;38.83;;;17.03;;
75890;SDS011;64571;47.512;19.054;2023-02-15T00:09:11;43.87;;;17.48;;
75890;SDS011;64571;47.512;19.054;2023-02-15T00:12:15;39.53;;;18.60;;
75890;SDS011;64571;47.512;19.054;2023-02-15T00:15:18;43.50;;;18.42;;
75890;SDS011;64571;47.512;19.054;2023-02-15T00:18:20;38.05;;;16.58;;
75890;SDS011;64571;47.512;19.054;2023-02-15T00:21:23;38.73;;;17.53;;
75890;SDS011;64571;47.512;19.054;2023-02-15T00:24:26;41.78;;;17.92;;
75890;SDS011;64571;47.512;19.054;2023-02-15T00:27:28;42.30;;;18.77;;
75890;SDS011;64571;47.512;19.054;2023-02-15T00:30:31;36.50;;;15.52;;
75890;SDS011;64571;47.512;19.054;2023-02-15T00:33:33;36.08;;;16.77;;
75890;SDS011;64571;47.512;19.054;2023-02-15T00:36:37;40.47;;;16.20;;
75890;SDS011;64571;47.512;19.054;2023-02-15T00:39:39;33.75;;;15.40;;
75890;SDS011;64571;47.512;19.054;2023-02-15T00:42:42;40.00;;;17.33;;
75890;SDS011;64571;47.512;19.054;2023-02-15T00:45:45;39.97;;;16.62;;
75890;SDS011;64571;47.512;19.054;2023-02-15T00:48:48;41.85;;;18.15;;
75890;SDS011;64571;47.512;19.054;2023-02-15T00:51:51;36.20;;;16.80;;
75890;SDS011;64571;47.512;19.054;2023-02-15T00:54:53;41.40;;;16.45;;
75890;SDS011;64571;47.512;19.054;2023-02-15T00:57:56;36.13;;;16.17;;
75890;SDS011;64571;47.512;19.054;2023-02-15T01:01:03;38.70;;;16.37;;
75890;SDS011;64571;47.512;19.054;2023-02-15T01:04:07;39.85;;;16.77;;
75890;SDS011;64571;47.512;19.054;2023-02-15T01:07:10;38.77;;;16.87;;
75890;SDS011;64571;47.512;19.054;2023-02-15T01:10:12;38.92;;;16.58;;
75890;SDS011;64571;47.512;19.054;2023-02-15T01:13:15;41.45;;;16.48;;
75890;SDS011;64571;47.512;19.054;2023-02-15T01:16:18;41.88;;;17.62;;
75890;SDS011;64571;47.512;19.054;2023-02-15T01:19:22;35.25;;;15.75;;
75890;SDS011;64571;47.512;19.054;2023-02-15T01:22:24;38.77;;;17.00;;
75890;SDS011;64571;47.512;19.054;2023-02-15T01:25:29;41.33;;;15.95;;
75890;SDS011;64571;47.512;19.054;2023-02-15T01:28:31;36.10;;;17.60;;
75890;SDS011;64571;47.512;19.054;2023-02-15T01:31:35;41.70;;;17.67;;
75890;SDS011;64571;47.512;19.054;2023-02-15T01:34:38;44.00;;;17.60;;
75890;SDS011;64571;47.512;19.054;2023-02-15T01:37:40;40.17;;;15.77;;
75890;SDS011;64571;47.512;19.054;2023-02-15T01:40:43;39.45;;;16.90;;
75890;SDS011;64571;47.512;19.054;2023-02-15T01:43:47;38.28;;;16.37;;
75890;SDS011;64571;47.512;19.054;2023-02-15T01:46:53;34.78;;;15.25;;
75890;SDS011;64571;47.512;19.054;2023-02-15T01:49:58;37.22;;;17.17;;
75890;SDS011;64571;47.512;19.054;2023-02-15T01:53:06;34.77;;;15.70;;
75890;SDS011;64571;47.512;19.054;2023-02-15T01:56:20;39.35;;;16.67;;
75890;SDS011;64571;47.512;19.054;2023-02-15T01:59:25;37.78;;;15.60;;
75890;SDS011;64571;47.512;19.054;2023-02-15T02:02:28;36.17;;;16.10;;
75890;SDS011;64571;47.512;19.054;2023-02-15T02:05:31;39.03;;;15.93;;
75890;SDS011;64571;47.512;19.054;2023-02-15T02:08:34;30.73;;;14.80;;
75890;SDS011;64571;47.512;19.054;2023-02-15T02:11:37;37.45;;;16.45;;
75890;SDS011;64571;47.512;19.054;2023-02-15T02:14:41;37.00;;;16.98;;
75890;SDS011;64571;47.512;19.054;2023-02-15T02:21:16;38.03;;;17.92;;
75890;SDS011;64571;47.512;19.054;2023-02-15T02:27:48;42.60;;;17.35;;
75890;SDS011;64571;47.512;19.054;2023-02-15T02:31:16;49.03;;;18.87;;
75890;SDS011;64571;47.512;19.054;2023-02-15T02:34:25;38.22;;;17.40;;
75890;SDS011;64571;47.512;19.054;2023-02-15T02:37:36;41.58;;;18.95;;
75890;SDS011;64571;47.512;19.054;2023-02-15T02:47:48;39.25;;;16.83;;
75890;SDS011;64571;47.512;19.054;2023-02-15T02:50:42;42.78;;;17.70;;
75890;SDS011;64571;47.512;19.054;2023-02-15T02:53:45;38.72;;;17.35;;
75890;SDS011;64571;47.512;19.054;2023-02-15T02:56:48;43.27;;;19.30;;
75890;SDS011;64571;47.512;19.054;2023-02-15T02:59:53;43.92;;;18.23;;
75890;SDS011;64571;47.512;19.054;2023-02-15T03:03:36;43.38;;;19.42;;
75890;SDS011;64571;47.512;19.054;2023-02-15T03:06:52;37.78;;;16.90;;
75890;SDS011;64571;47.512;19.054;2023-02-15T03:10:01;37.83;;;17.15;;
75890;SDS011;64571;47.512;19.054;2023-02-15T03:13:07;37.23;;;16.80;;
75890;SDS011;64571;47.512;19.054;2023-02-15T03:16:10;40.78;;;17.98;;
75890;SDS011;64571;47.512;19.054;2023-02-15T03:19:29;46.17;;;19.58;;
75890;SDS011;64571;47.512;19.054;2023-02-15T03:22:39;41.40;;;18.37;;
75890;SDS011;64571;47.512;19.054;2023-02-15T03:26:03;44.15;;;19.08;;
75890;SDS011;64571;47.512;19.054;2023-02-15T03:29:08;40.97;;;19.20;;
75890;SDS011;64571;47.512;19.054;2023-02-15T03:32:13;43.92;;;18.30;;
75890;SDS011;64571;47.512;19.054;2023-02-15T03:35:18;42.38;;;19.33;;
75890;SDS011;64571;47.512;19.054;2023-02-15T03:38:29;40.88;;;17.65;;
75890;SDS011;64571;47.512;19.054;2023-02-15T03:41:40;44.28;;;19.10;;
75890;SDS011;64571;47.512;19.054;2023-02-15T03:44:53;45.07;;;18.83;;
75890;SDS011;64571;47.512;19.054;2023-02-15T03:48:00;43.30;;;18.48;;
75890;SDS011;64571;47.512;19.054;2023-02-15T03:51:06;40.17;;;17.08;;
75890;SDS011;64571;47.512;19.054;2023-02-15T03:54:31;41.75;;;17.67;;
75890;SDS011;64571;47.512;19.054;2023-02-15T03:57:46;46.88;;;18.85;;
75890;SDS011;64571;47.512;19.054;2023-02-15T04:01:26;39.60;;;15.83;;
75890;SDS011;64571;47.512;19.054;2023-02-15T04:05:05;39.72;;;16.80;;
75890;SDS011;64571;47.512;19.054;2023-02-15T04:08:07;39.30;;;17.35;;
75890;SDS011;64571;47.512;19.054;2023-02-15T04:11:11;41.42;;;17.52;;
75890;SDS011;64571;47.512;19.054;2023-02-15T04:14:13;39.30;;;18.60;;
75890;SDS011;64571;47.512;19.054;2023-02-15T04:17:35;39.23;;;17.63;;
75890;SDS011;64571;47.512;19.054;2023-02-15T04:20:38;39.00;;;16.52;;
75890;SDS011;64571;47.512;19.054;2023-02-15T04:24:00;42.75;;;18.58;;
75890;SDS011;64571;47.512;19.054;2023-02-15T04:27:21;44.33;;;18.15;;
75890;SDS011;64571;47.512;19.054;2023-02-15T04:30:24;40.65;;;18.17;;
75890;SDS011;64571;47.512;19.054;2023-02-15T04:33:27;38.73;;;16.53;;
75890;SDS011;64571;47.512;19.054;2023-02-15T04:36:30;39.85;;;17.80;;
75890;SDS011;64571;47.512;19.054;2023-02-15T04:39:32;38.63;;;17.50;;
75890;SDS011;64571;47.512;19.054;2023-02-15T04:42:35;38.75;;;16.92;;
75890;SDS011;64571;47.512;19.054;2023-02-15T04:45:38;41.65;;;17.25;;
75890;SDS011;64571;47.512;19.054;2023-02-15T04:48:40;44.17;;;18.00;;
75890;SDS011;64571;47.512;19.054;2023-02-15T04:51:43;39.55;;;18.05;;
75890;SDS011;64571;47.512;19.054;2023-02-15T04:54:46;41.78;;;18.33;;
75890;SDS011;64571;47.512;19.054;2023-02-15T04:57:48;39.58;;;18.48;;
75890;SDS011;64571;47.512;19.054;2023-02-15T05:00:51;35.85;;;16.60;;
75890;SDS011;64571;47.512;19.054;2023-02-15T05:03:57;38.80;;;16.40;;
75890;SDS011;64571;47.512;19.054;2023-02-15T05:06:59;39.60;;;18.12;;
75890;SDS011;64571;47.512;19.054;2023-02-15T05:10:02;48.08;;;19.40;;
75890;SDS011;64571;47.512;19.054;2023-02-15T05:13:05;47.13;;;18.77;;
75890;SDS011;64571;47.512;19.054;2023-02-15T05:16:08;51.67;;;21.17;;
75890;SDS011;64571;47.512;19.054;2023-02-15T05:19:10;43.03;;;17.80;;
75890;SDS011;64571;47.512;19.054;2023-02-15T05:22:13;45.05;;;19.95;;
75890;SDS011;64571;47.512;19.054;2023-02-15T05:25:16;43.72;;;20.58;;
75890;SDS011;64571;47.512;19.054;2023-02-15T05:28:37;41.00;;;18.37;;
75890;SDS011;64571;47.512;19.054;2023-02-15T05:31:42;42.95;;;18.12;;
75890;SDS011;64571;47.512;19.054;2023-02-15T05:34:49;38.27;;;17.77;;
75890;SDS011;64571;47.512;19.054;2023-02-15T05:37:52;43.03;;;17.65;;
75890;SDS011;64571;47.512;19.054;2023-02-15T05:40:54;40.15;;;16.90;;
75890;SDS011;64571;47.512;19.054;2023-02-15T05:43:57;41.55;;;16.60;;
75890;SDS011;64571;47.512;19.054;2023-02-15T05:46:59;45.15;;;17.10;;
75890;SDS011;64571;47.512;19.054;2023-02-15T05:50:02;39.57;;;17.90;;
75890;SDS011;64571;47.512;19.054;2023-02-15T05:53:04;44.95;;;17.33;;
75890;SDS011;64571;47.512;19.054;2023-02-15T05:56:08;42.25;;;18.48;;
75890;SDS011;64571;47.512;19.054;2023-02-15T05:59:11;49.35;;;18.80;;
75890;SDS011;64571;47.512;19.054;2023-02-15T06:02:14;37.20;;;16.37;;
75890;SDS011;64571;47.512;19.054;2023-02-15T06:05:17;36.43;;;14.77;;
75890;SDS011;64571;47.512;19.054;2023-02-15T06:08:20;41.85;;;16.08;;
75890;SDS011;64571;47.512;19.054;2023-02-15T06:11:22;36.83;;;17.45;;
75890;SDS011;64571;47.512;19.054;2023-02-15T06:14:25;38.25;;;15.38;;
75890;SDS011;64571;47.512;19.054;2023-02-15T06:17:27;37.85;;;15.88;;
75890;SDS011;64571;47.512;19.054;2023-02-15T06:20:30;34.73;;;15.77;;
75890;SDS011;64571;47.512;19.054;2023-02-15T06:23:33;36.78;;;16.65;;
75890;SDS011;64571;47.512;19.054;2023-02-15T06:26:35;37.90;;;15.73;;
75890;SDS011;64571;47.512;19.054;2023-02-15T06:29:38;38.70;;;15.30;;
75890;SDS011;64571;47.512;19.054;2023-02-15T06:32:40;35.60;;;16.55;;
75890;SDS011;64571;47.512;19.054;2023-02-15T06:35:44;44.33;;;16.13;;
75890;SDS011;64571;47.512;19.054;2023-02-15T06:38:47;37.15;;;15.50;;
75890;SDS011;64571;47.512;19.054;2023-02-15T06:41:50;38.00;;;15.80;;
75890;SDS011;64571;47.512;19.054;2023-02-15T06:44:52;37.15;;;15.40;;
75890;SDS011;64571;47.512;19.054;2023-02-15T06:47:55;38.22;;;16.27;;
75890;SDS011;64571;47.512;19.054;2023-02-15T06:50:57;38.93;;;17.97;;
75890;SDS011;64571;47.512;19.054;2023-02-15T06:54:00;40.03;;;17.42;;
75890;SDS011;64571;47.512;19.054;2023-02-15T06:57:02;41.60;;;17.75;;
75890;SDS011;64571;47.512;19.054;2023-02-15T07:00:05;35.83;;;14.60;;
75890;SDS011;64571;47.512;19.054;2023-02-15T07:03:08;40.80;;;16.48;;
75890;SDS011;64571;47.512;19.054;2023-02-15T07:06:11;46.20;;;17.80;;
75890;SDS011;64571;47.512;19.054;2023-02-15T07:09:14;44.95;;;18.70;;
75890;SDS011;64571;47.512;19.054;2023-02-15T07:12:16;39.13;;;16.65;;
75890;SDS011;64571;47.512;19.054;2023-02-15T07:15:37;40.75;;;18.17;;
75890;SDS011;64571;47.512;19.054;2023-02-15T07:18:40;46.55;;;20.58;;
75890;SDS011;64571;47.512;19.054;2023-02-15T07:21:42;41.67;;;19.40;;
75890;SDS011;64571;47.512;19.054;2023-02-15T07:24:47;40.05;;;17.27;;
75890;SDS011;64571;47.512;19.054;2023-02-15T07:27:57;38.33;;;17.73;;
75890;SDS011;64571;47.512;19.054;2023-02-15T07:31:02;44.15;;;17.83;;
75890;SDS011;64571;47.512;19.054;2023-02-15T07:34:06;42.00;;;18.30;;
75890;SDS011;64571;47.512;19.054;2023-02-15T07:37:09;39.00;;;17.60;;
75890;SDS011;64571;47.512;19.054;2023-02-15T07:40:12;45.75;;;19.95;;
75890;SDS011;64571;47.512;19.054;2023-02-15T07:43:14;54.08;;;25.08;;
75890;SDS011;64571;47.512;19.054;2023-02-15T07:46:17;45.12;;;19.70;;
75890;SDS011;64571;47.512;19.054;2023-02-15T07:49:21;37.17;;;18.08;;
75890;SDS011;64571;47.512;19.054;2023-02-15T07:52:25;38.50;;;17.40;;
75890;SDS011;64571;47.512;19.054;2023-02-15T07:55:28;42.83;;;19.27;;
75890;SDS011;64571;47.512;19.054;2023-02-15T07:58:30;44.38;;;19.35;;
75890;SDS011;64571;47.512;19.054;2023-02-15T08:01:52;39.33;;;17.12;;
75890;SDS011;64571;47.512;19.054;2023-02-15T08:04:56;33.40;;;17.33;;
75890;SDS011;64571;47.512;19.054;2023-02-15T08:07:58;36.93;;;17.73;;
75890;SDS011;64571;47.512;19.054;2023-02-15T08:11:02;39.50;;;18.55;;
75890;SDS011;64571;47.512;19.054;2023-02-15T08:14:26;39.03;;;18.27;;
75890;SDS011;64571;47.512;19.054;2023-02-15T08:17:29;39.35;;;17.05;;
75890;SDS011;64571;47.512;19.054;2023-02-15T08:20:31;36.85;;;17.02;;
75890;SDS011;64571;47.512;19.054;2023-02-15T08:23:34;40.43;;;17.93;;
75890;SDS011;64571;47.512;19.054;2023-02-15T08:26:37;37.88;;;17.23;;
75890;SDS011;64571;47.512;19.054;2023-02-15T08:29:43;40.90;;;18.30;;
75890;SDS011;64571;47.512;19.054;2023-02-15T08:32:45;40.95;;;18.83;;
75890;SDS011;64571;47.512;19.054;2023-02-15T08:35:48;38.10;;;18.25;;
75890;SDS011;64571;47.512;19.054;2023-02-15T08:38:51;39.07;;;16.90;;
75890;SDS011;64571;47.512;19.054;2023-02-15T08:41:54;38.17;;;18.92;;
75890;SDS011;64571;47.512;19.054;2023-02-15T08:44:56;39.72;;;18.27;;
75890;SDS011;64571;47.512;19.054;2023-02-15T08:47:59;39.60;;;18.27;;
75890;SDS011;64571;47.512;19.054;2023-02-15T08:51:08;55.03;;;23.10;;
75890;SDS011;64571;47.512;19.054;2023-02-15T08:54:13;43.73;;;20.00;;
75890;SDS011;64571;47.512;19.054;2023-02-15T08:57:20;49.33;;;20.67;;
75890;SDS011;64571;47.512;19.054;2023-02-15T09:00:23;40.10;;;19.70;;
75890;SDS011;64571;47.512;19.054;2023-02-15T09:03:27;43.70;;;19.45;;
75890;SDS011;64571;47.512;19.054;2023-02-15T09:06:30;47.25;;;20.45;;
75890;SDS011;64571;47.512;19.054;2023-02-15T09:09:33;46.50;;;21.93;;
75890;SDS011;64571;47.512;19.054;2023-02-15T09:12:36;45.85;;;21.00;;
75890;SDS011;64571;47.512;19.054;2023-02-15T09:15:38;61.90;;;26.12;;
75890;SDS011;64571;47.512;19.054;2023-02-15T09:18:41;46.90;;;21.70;;
75890;SDS011;64571;47.512;19.054;2023-02-15T09:21:43;47.28;;;21.25;;
75890;SDS011;64571;47.512;19.054;2023-02-15T09:24:46;42.67;;;20.30;;
75890;SDS011;64571;47.512;19.054;2023-02-15T09:27:48;43.75;;;20.37;;
75890;SDS011;64571;47.512;19.054;2023-02-15T09:30:51;42.95;;;20.30;;
75890;SDS011;64571;47.512;19.054;2023-02-15T09:33:55;42.78;;;21.33;;
75890;SDS011;64571;47.512;19.054;2023-02-15T09:36:58;39.55;;;18.80;;
75890;SDS011;64571;47.512;19.054;2023-02-15T09:40:00;43.37;;;19.80;;
75890;SDS011;64571;47.512;19.054;2023-02-15T09:49:38;42.92;;;19.80;;
75890;SDS011;64571;47.512;19.054;2023-02-15T09:56:09;43.87;;;20.70;;
75890;SDS011;64571;47.512;19.054;2023-02-15T10:02:49;50.15;;;22.10;;
75890;SDS011;64571;47.512;19.054;2023-02-15T10:09:44;42.92;;;20.37;;
75890;SDS011;64571;47.512;19.054;2023-02-15T10:13:05;44.13;;;19.97;;
75890;SDS011;64571;47.512;19.054;2023-02-15T10:26:58;37.40;;;18.02;;
75890;SDS011;64571;47.512;19.054;2023-02-15T10:30:13;36.57;;;18.57;;
75890;SDS011;64571;47.512;19.054;2023-02-15T10:33:40;38.20;;;18.70;;
75890;SDS011;64571;47.512;19.054;2023-02-15T10:50:27;40.92;;;22.52;;
75890;SDS011;64571;47.512;19.054;2023-02-15T11:00:16;45.83;;;22.48;;
75890;SDS011;64571;47.512;19.054;2023-02-15T11:03:34;45.83;;;23.40;;
75890;SDS011;64571;47.512;19.054;2023-02-15T11:06:47;41.75;;;20.50;;
75890;SDS011;64571;47.512;19.054;2023-02-15T11:10:02;45.28;;;21.95;;
75890;SDS011;64571;47.512;19.054;2023-02-15T11:13:20;38.95;;;20.85;;
75890;SDS011;64571;47.512;19.054;2023-02-15T11:16:29;41.10;;;20.70;;
75890;SDS011;64571;47.512;19.054;2023-02-15T11:19:46;41.23;;;18.90;;
75890;SDS011;64571;47.512;19.054;2023-02-15T11:23:12;40.65;;;18.80;;
75890;SDS011;64571;47.512;19.054;2023-02-15T11:26:26;42.13;;;20.58;;
75890;SDS011;64571;47.512;19.054;2023-02-15T11:32:40;40.70;;;20.42;;
75890;SDS011;64571;47.512;19.054;2023-02-15T11:35:48;40.60;;;19.07;;
75890;SDS011;64571;47.512;19.054;2023-02-15T11:38:59;38.08;;;19.37;;
75890;SDS011;64571;47.512;19.054;2023-02-15T11:42:09;41.30;;;22.00;;
75890;SDS011;64571;47.512;19.054;2023-02-15T11:48:27;50.03;;;22.90;;
75890;SDS011;64571;47.512;19.054;2023-02-15T11:51:33;44.33;;;21.83;;
75890;SDS011;64571;47.512;19.054;2023-02-15T11:54:39;44.75;;;22.70;;
75890;SDS011;64571;47.512;19.054;2023-02-15T11:57:46;45.58;;;22.02;;
75890;SDS011;64571;47.512;19.054;2023-02-15T12:04:38;48.70;;;23.62;;
75890;SDS011;64571;47.512;19.054;2023-02-15T12:07:46;48.57;;;22.73;;
75890;SDS011;64571;47.512;19.054;2023-02-15T12:10:58;49.67;;;22.65;;
75890;SDS011;64571;47.512;19.054;2023-02-15T12:14:09;44.03;;;21.45;;
75890;SDS011;64571;47.512;19.054;2023-02-15T12:17:18;44.72;;;21.05;;
75890;SDS011;64571;47.512;19.054;2023-02-15T12:20:32;45.70;;;20.92;;
75890;SDS011;64571;47.512;19.054;2023-02-15T12:24:20;45.53;;;21.07;;
75890;SDS011;64571;47.512;19.054;2023-02-15T12:27:11;38.80;;;19.62;;
75890;SDS011;64571;47.512;19.054;2023-02-15T12:33:36;43.17;;;20.60;;
75890;SDS011;64571;47.512;19.054;2023-02-15T12:36:46;43.70;;;20.05;;
75890;SDS011;64571;47.512;19.054;2023-02-15T12:40:00;43.27;;;19.60;;
75890;SDS011;64571;47.512;19.054;2023-02-15T12:43:29;45.95;;;21.98;;
75890;SDS011;64571;47.512;19.054;2023-02-15T12:46:33;46.80;;;20.62;;
75890;SDS011;64571;47.512;19.054;2023-02-15T12:49:39;43.28;;;20.80;;
75890;SDS011;64571;47.512;19.054;2023-02-15T12:52:50;40.30;;;19.73;;
75890;SDS011;64571;47.512;19.054;2023-02-15T12:55:55;43.80;;;20.23;;
75890;SDS011;64571;47.512;19.054;2023-02-15T12:59:12;42.35;;;20.20;;
75890;SDS011;64571;47.512;19.054;2023-02-15T13:02:25;41.55;;;20.67;;
75890;SDS011;64571;47.512;19.054;2023-02-15T13:08:35;41.92;;;18.20;;
75890;SDS011;64571;47.512;19.054;2023-02-15T13:11:48;40.53;;;16.97;;
75890;SDS011;64571;47.512;19.054;2023-02-15T13:14:51;37.10;;;17.75;;
75890;SDS011;64571;47.512;19.054;2023-02-15T13:17:59;35.08;;;18.17;;
75890;SDS011;64571;47.512;19.054;2023-02-15T13:21:26;35.47;;;17.17;;
75890;SDS011;64571;47.512;19.054;2023-02-15T13:24:32;34.00;;;16.83;;
75890;SDS011;64571;47.512;19.054;2023-02-15T13:27:40;34.93;;;17.40;;
75890;SDS011;64571;47.512;19.054;2023-02-15T13:30:46;34.20;;;17.10;;
75890;SDS011;64571;47.512;19.054;2023-02-15T13:33:54;35.40;;;16.40;;
75890;SDS011;64571;47.512;19.054;2023-02-15T13:37:06;35.03;;;16.48;;
75890;SDS011;64571;47.512;19.054;2023-02-15T13:40:21;33.85;;;16.70;;
75890;SDS011;64571;47.512;19.054;2023-02-15T13:43:46;33.57;;;15.80;;
75890;SDS011;64571;47.512;19.054;2023-02-15T13:47:14;39.83;;;17.15;;
75890;SDS011;64571;47.512;19.054;2023-02-15T14:00:38;33.20;;;15.13;;
75890;SDS011;64571;47.512;19.054;2023-02-15T14:04:13;29.92;;;14.82;;
75890;SDS011;64571;47.512;19.054;2023-02-15T14:10:59;34.88;;;15.43;;
75890;SDS011;64571;47.512;19.054;2023-02-15T14:30:59;32.03;;;16.23;;
75890;SDS011;64571;47.512;19.054;2023-02-15T14:34:08;33.87;;;16.60;;
75890;SDS011;64571;47.512;19.054;2023-02-15T14:41:16;35.17;;;16.92;;
75890;SDS011;64571;47.512;19.054;2023-02-15T14:44:23;32.67;;;16.48;;
75890;SDS011;64571;47.512;19.054;2023-02-15T14:47:36;36.00;;;15.07;;
75890;SDS011;64571;47.512;19.054;2023-02-15T14:50:46;36.03;;;15.43;;
75890;SDS011;64571;47.512;19.054;2023-02-15T14:53:49;32.80;;;15.23;;
75890;SDS011;64571;47.512;19.054;2023-02-15T14:57:38;34.55;;;17.98;;
75890;SDS011;64571;47.512;19.054;2023-02-15T15:00:31;35.17;;;14.85;;
75890;SDS011;64571;47.512;19.054;2023-02-15T15:03:43;30.30;;;15.05;;
75890;SDS011;64571;47.512;19.054;2023-02-15T15:11:36;31.45;;;15.60;;
75890;SDS011;64571;47.512;19.054;2023-02-15T15:14:43;32.25;;;15.93;;
75890;SDS011;64571;47.512;19.054;2023-02-15T15:17:51;35.67;;;15.48;;
75890;SDS011;64571;47.512;19.054;2023-02-15T15:21:02;31.08;;;15.43;;
75890;SDS011;64571;47.512;19.054;2023-02-15T15:24:05;33.77;;;15.37;;
75890;SDS011;64571;47.512;19.054;2023-02-15T15:51:27;36.28;;;17.15;;
75890;SDS011;64571;47.512;19.054;2023-02-15T15:54:33;35.75;;;16.65;;
75890;SDS011;64571;47.512;19.054;2023-02-15T15:57:39;38.17;;;18.47;;
75890;SDS011;64571;47.512;19.054;2023-02-15T16:04:10;37.33;;;16.90;;
75890;SDS011;64571;47.512;19.054;2023-02-15T16:10:24;39.38;;;16.67;;
75890;SDS011;64571;47.512;19.054;2023-02-15T16:13:31;36.17;;;15.83;;
75890;SDS011;64571;47.512;19.054;2023-02-15T16:16:36;35.92;;;16.87;;
75890;SDS011;64571;47.512;19.054;2023-02-15T16:19:41;33.78;;;16.35;;
75890;SDS011;64571;47.512;19.054;2023-02-15T16:22:46;36.17;;;16.67;;
75890;SDS011;64571;47.512;19.054;2023-02-15T16:29:12;34.90;;;15.20;;
75890;SDS011;64571;47.512;19.054;2023-02-15T16:35:23;37.88;;;16.15;;
75890;SDS011;64571;47.512;19.054;2023-02-15T16:41:47;37.15;;;17.33;;
75890;SDS011;64571;47.512;19.054;2023-02-15T16:44:53;33.20;;;16.33;;
75890;SDS011;64571;47.512;19.054;2023-02-15T16:48:00;39.60;;;18.05;;
75890;SDS011;64571;47.512;19.054;2023-02-15T16:51:10;39.60;;;16.90;;
75890;SDS011;64571;47.512;19.054;2023-02-15T16:54:22;38.97;;;16.92;;
75890;SDS011;64571;47.512;19.054;2023-02-15T16:57:32;44.20;;;18.37;;
75890;SDS011;64571;47.512;19.054;2023-02-15T17:00:37;44.17;;;16.97;;
75890;SDS011;64571;47.512;19.054;2023-02-15T17:03:43;38.28;;;17.90;;
75890;SDS011;64571;47.512;19.054;2023-02-15T17:10:25;42.67;;;18.17;;
75890;SDS011;64571;47.512;19.054;2023-02-15T17:13:29;44.08;;;20.27;;
75890;SDS011;64571;47.512;19.054;2023-02-15T17:16:48;41.27;;;18.67;;
75890;SDS011;64571;47.512;19.054;2023-02-15T17:20:17;43.85;;;19.20;;
75890;SDS011;64571;47.512;19.054;2023-02-15T17:23:37;42.33;;;20.08;;
75890;SDS011;64571;47.512;19.054;2023-02-15T17:26:43;43.63;;;18.25;;
75890;SDS011;64571;47.512;19.054;2023-02-15T17:30:03;40.83;;;19.30;;
75890;SDS011;64571;47.512;19.054;2023-02-15T17:33:23;39.13;;;17.77;;
75890;SDS011;64571;47.512;19.054;2023-02-15T17:36:31;37.75;;;18.17;;
75890;SDS011;64571;47.512;19.054;2023-02-15T17:39:34;40.80;;;18.45;;
75890;SDS011;64571;47.512;19.054;2023-02-15T17:42:36;40.38;;;19.35;;
75890;SDS011;64571;47.512;19.054;2023-02-15T17:45:44;41.97;;;19.50;;
75890;SDS011;64571;47.512;19.054;2023-02-15T17:48:51;40.27;;;17.67;;
75890;SDS011;64571;47.512;19.054;2023-02-15T17:51:57;44.83;;;20.23;;
75890;SDS011;64571;47.512;19.054;2023-02-15T17:55:00;42.33;;;19.55;;
75890;SDS011;64571;47.512;19.054;2023-02-15T17:58:33;42.08;;;19.27;;
75890;SDS011;64571;47.512;19.054;2023-02-15T18:01:36;44.85;;;19.00;;
75890;SDS011;64571;47.512;19.054;2023-02-15T18:05:02;43.83;;;19.20;;
75890;SDS011;64571;47.512;19.054;2023-02-15T18:08:24;40.85;;;19.05;;
75890;SDS011;64571;47.512;19.054;2023-02-15T18:11:48;47.83;;;20.02;;
75890;SDS011;64571;47.512;19.054;2023-02-15T18:14:52;47.78;;;21.17;;
75890;SDS011;64571;47.512;19.054;2023-02-15T18:17:55;42.85;;;18.83;;
75890;SDS011;64571;47.512;19.054;2023-02-15T18:20:58;46.40;;;20.20;;
75890;SDS011;64571;47.512;19.054;2023-02-15T18:24:01;47.88;;;20.40;;
75890;SDS011;64571;47.512;19.054;2023-02-15T18:27:03;50.38;;;20.95;;
75890;SDS011;64571;47.512;19.054;2023-02-15T18:30:08;39.95;;;18.77;;
75890;SDS011;64571;47.512;19.054;2023-02-15T18:33:24;49.53;;;20.17;;
75890;SDS011;64571;47.512;19.054;2023-02-15T18:36:42;49.00;;;19.37;;
75890;SDS011;64571;47.512;19.054;2023-02-15T18:39:46;47.60;;;19.05;;
75890;SDS011;64571;47.512;19.054;2023-02-15T18:42:51;45.20;;;20.52;;
75890;SDS011;64571;47.512;19.054;2023-02-15T18:45:53;43.28;;;18.80;;
75890;SDS011;64571;47.512;19.054;2023-02-15T18:48:56;40.70;;;18.52;;
75890;SDS011;64571;47.512;19.054;2023-02-15T18:52:00;45.90;;;18.70;;
75890;SDS011;64571;47.512;19.054;2023-02-15T18:55:15;45.15;;;19.52;;
75890;SDS011;64571;47.512;19.054;2023-02-15T18:58:19;42.90;;;19.35;;
75890;SDS011;64571;47.512;19.054;2023-02-15T19:01:26;45.20;;;18.25;;
75890;SDS011;64571;47.512;19.054;2023-02-15T19:04:29;44.00;;;18.67;;
75890;SDS011;64571;47.512;19.054;2023-02-15T19:07:34;41.93;;;18.83;;
75890;SDS011;64571;47.512;19.054;2023-02-15T19:10:37;48.50;;;19.60;;
75890;SDS011;64571;47.512;19.054;2023-02-15T19:13:40;42.58;;;18.62;;
75890;SDS011;64571;47.512;19.054;2023-02-15T19:16:42;41.58;;;18.00;;
75890;SDS011;64571;47.512;19.054;2023-02-15T19:19:46;41.37;;;19.23;;
75890;SDS011;64571;47.512;19.054;2023-02-15T19:22:49;48.87;;;19.20;;
75890;SDS011;64571;47.512;19.054;2023-02-15T19:25:53;43.42;;;17.75;;
75890;SDS011;64571;47.512;19.054;2023-02-15T19:28:56;46.60;;;20.92;;
75890;SDS011;64571;47.512;19.054;2023-02-15T19:32:01;45.65;;;18.62;;
75890;SDS011;64571;47.512;19.054;2023-02-15T19:35:05;49.88;;;21.35;;
75890;SDS011;64571;47.512;19.054;2023-02-15T19:38:11;51.43;;;22.87;;
75890;SDS011;64571;47.512;19.054;2023-02-15T19:41:31;52.00;;;20.98;;
75890;SDS011;64571;47.512;19.054;2023-02-15T19:44:35;42.10;;;20.05;;
75890;SDS011;64571;47.512;19.054;2023-02-15T19:47:38;45.95;;;19.70;;
75890;SDS011;64571;47.512;19.054;2023-02-15T19:50:41;43.30;;;19.20;;
75890;SDS011;64571;47.512;19.054;2023-02-15T19:53:46;41.00;;;18.67;;
75890;SDS011;64571;47.512;19.054;2023-02-15T19:56:50;43.90;;;19.80;;
75890;SDS011;64571;47.512;19.054;2023-02-15T19:59:53;50.97;;;21.80;;
75890;SDS011;64571;47.512;19.054;2023-02-15T20:02:57;62.92;;;25.58;;
75890;SDS011;64571;47.512;19.054;2023-02-15T20:06:01;52.60;;;22.52;;
75890;SDS011;64571;47.512;19.054;2023-02-15T20:09:04;47.13;;;20.37;;
75890;SDS011;64571;47.512;19.054;2023-02-15T20:12:25;47.28;;;20.23;;
75890;SDS011;64571;47.512;19.054;2023-02-15T20:15:33;49.65;;;20.80;;
75890;SDS011;64571;47.512;19.054;2023-02-15T20:18:36;57.40;;;23.70;;
75890;SDS011;64571;47.512;19.054;2023-02-15T20:21:39;51.53;;;22.98;;
75890;SDS011;64571;47.512;19.054;2023-02-15T20:24:43;47.90;;;21.73;;
75890;SDS011;64571;47.512;19.054;2023-02-15T20:27:46;61.13;;;25.83;;
75890;SDS011;64571;47.512;19.054;2023-02-15T20:30:49;67.78;;;26.95;;
75890;SDS011;64571;47.512;19.054;2023-02-15T20:33:52;56.33;;;24.15;;
75890;SDS011;64571;47.512;19.054;2023-02-15T20:36:55;48.40;;;20.37;;
75890;SDS011;64571;47.512;19.054;2023-02-15T20:39:57;45.00;;;20.10;;